sensor_id;sensor_type;location;lat;lon;timestamp;P1;durP1;ratioP1;P2;durP2;ratioP2
55186;SDS011;55457;52.002;5.464;2023-07-02T00:01:19;8.55;;;3.08;;
55186;SDS011;55457;52.002;5.464;2023-07-02T00:03:44;10.38;;;2.80;;
55186;SDS011;55457;52.002;5.464;2023-07-02T00:06:09;9.50;;;3.10;;
55186;SDS011;55457;52.002;5.464;2023-07-02T00:08:35;5.00;;;2.30;;
55186;SDS011;55457;52.002;5.464;2023-07-02T00:11:00;20.02;;;3.58;;
55186;SDS011;55457;52.002;5.464;2023-07-02T00:13:25;8.15;;;2.72;;
55186;SDS011;55457;52.002;5.464;2023-07-02T00:15:51;9.73;;;3.20;;
55186;SDS011;55457;52.002;5.464;2023-07-02T00:18:16;9.85;;;2.45;;
55186;SDS011;55457;52.002;5.464;2023-07-02T00:20:42;8.82;;;2.90;;
55186;SDS011;55457;52.002;5.464;2023-07-02T00:23:08;5.72;;;2.45;;
55186;SDS011;55457;52.002;5.464;2023-07-02T00:25:34;7.00;;;3.38;;
55186;SDS011;55457;52.002;5.464;2023-07-02T00:28:00;9.30;;;3.30;;
55186;SDS011;55457;52.002;5.464;2023-07-02T00:30:26;11.00;;;3.22;;
55186;SDS011;55457;52.002;5.464;2023-07-02T00:32:51;4.68;;;2.22;;
55186;SDS011;55457;52.002;5.464;2023-07-02T00:35:16;7.40;;;3.75;;
55186;SDS011;55457;52.002;5.464;2023-07-02T00:37:42;8.90;;;3.00;;
55186;SDS011;55457;52.002;5.464;2023-07-02T00:40:07;7.88;;;3.53;;
55186;SDS011;55457;52.002;5.464;2023-07-02T00:42:33;7.78;;;3.55;;
55186;SDS011;55457;52.002;5.464;2023-07-02T00:44:58;10.18;;;3.47;;
55186;SDS011;55457;52.002;5.464;2023-07-02T00:47:27;7.55;;;2.88;;
55186;SDS011;55457;52.002;5.464;2023-07-02T00:49:53;10.07;;;3.40;;
55186;SDS011;55457;52.002;5.464;2023-07-02T00:52:19;9.55;;;3.42;;
55186;SDS011;55457;52.002;5.464;2023-07-02T00:54:45;10.05;;;3.42;;
55186;SDS011;55457;52.002;5.464;2023-07-02T00:57:11;13.45;;;3.75;;
55186;SDS011;55457;52.002;5.464;2023-07-02T00:59:37;8.15;;;4.20;;
55186;SDS011;55457;52.002;5.464;2023-07-02T01:02:03;9.25;;;3.63;;
55186;SDS011;55457;52.002;5.464;2023-07-02T01:04:30;7.72;;;3.42;;
55186;SDS011;55457;52.002;5.464;2023-07-02T01:06:56;8.52;;;3.22;;
55186;SDS011;55457;52.002;5.464;2023-07-02T01:09:22;8.32;;;3.90;;
55186;SDS011;55457;52.002;5.464;2023-07-02T01:11:53;10.15;;;3.83;;
55186;SDS011;55457;52.002;5.464;2023-07-02T01:16:58;10.68;;;3.78;;
55186;SDS011;55457;52.002;5.464;2023-07-02T01:19:48;12.15;;;3.30;;
55186;SDS011;55457;52.002;5.464;2023-07-02T01:24:47;7.57;;;3.38;;
55186;SDS011;55457;52.002;5.464;2023-07-02T01:27:14;14.13;;;3.50;;
55186;SDS011;55457;52.002;5.464;2023-07-02T01:29:40;9.13;;;4.10;;
55186;SDS011;55457;52.002;5.464;2023-07-02T01:32:07;8.02;;;2.95;;
55186;SDS011;55457;52.002;5.464;2023-07-02T01:34:33;11.18;;;4.47;;
55186;SDS011;55457;52.002;5.464;2023-07-02T01:36:59;10.90;;;4.45;;
55186;SDS011;55457;52.002;5.464;2023-07-02T01:39:24;11.15;;;3.53;;
55186;SDS011;55457;52.002;5.464;2023-07-02T01:41:51;12.02;;;4.53;;
55186;SDS011;55457;52.002;5.464;2023-07-02T01:44:16;7.45;;;3.70;;
55186;SDS011;55457;52.002;5.464;2023-07-02T01:46:42;7.88;;;3.58;;
55186;SDS011;55457;52.002;5.464;2023-07-02T01:49:07;7.75;;;3.65;;
55186;SDS011;55457;52.002;5.464;2023-07-02T01:51:33;9.15;;;3.58;;
55186;SDS011;55457;52.002;5.464;2023-07-02T01:53:59;9.02;;;4.03;;
55186;SDS011;55457;52.002;5.464;2023-07-02T01:56:24;9.80;;;4.30;;
55186;SDS011;55457;52.002;5.464;2023-07-02T01:58:49;9.50;;;2.95;;
55186;SDS011;55457;52.002;5.464;2023-07-02T02:01:15;13.38;;;3.88;;
55186;SDS011;55457;52.002;5.464;2023-07-02T02:03:40;8.93;;;3.88;;
55186;SDS011;55457;52.002;5.464;2023-07-02T02:06:05;10.10;;;3.63;;
55186;SDS011;55457;52.002;5.464;2023-07-02T02:08:31;8.55;;;3.80;;
55186;SDS011;55457;52.002;5.464;2023-07-02T02:10:56;8.77;;;3.33;;
55186;SDS011;55457;52.002;5.464;2023-07-02T02:13:22;7.82;;;4.03;;
55186;SDS011;55457;52.002;5.464;2023-07-02T02:15:47;6.57;;;3.10;;
55186;SDS011;55457;52.002;5.464;2023-07-02T02:18:12;11.20;;;4.60;;
55186;SDS011;55457;52.002;5.464;2023-07-02T02:20:38;10.57;;;4.18;;
55186;SDS011;55457;52.002;5.464;2023-07-02T02:23:03;12.65;;;4.38;;
55186;SDS011;55457;52.002;5.464;2023-07-02T02:25:29;9.98;;;5.07;;
55186;SDS011;55457;52.002;5.464;2023-07-02T02:27:54;13.32;;;3.80;;
55186;SDS011;55457;52.002;5.464;2023-07-02T02:30:20;10.10;;;3.83;;
55186;SDS011;55457;52.002;5.464;2023-07-02T02:32:45;10.40;;;4.55;;
55186;SDS011;55457;52.002;5.464;2023-07-02T02:35:10;13.02;;;3.75;;
55186;SDS011;55457;52.002;5.464;2023-07-02T02:37:36;8.38;;;4.10;;
55186;SDS011;55457;52.002;5.464;2023-07-02T02:40:03;10.57;;;3.90;;
55186;SDS011;55457;52.002;5.464;2023-07-02T02:42:30;8.50;;;4.10;;
55186;SDS011;55457;52.002;5.464;2023-07-02T02:44:56;8.48;;;3.88;;
55186;SDS011;55457;52.002;5.464;2023-07-02T02:47:21;9.88;;;3.85;;
55186;SDS011;55457;52.002;5.464;2023-07-02T02:49:46;9.02;;;3.88;;
55186;SDS011;55457;52.002;5.464;2023-07-02T02:52:12;7.78;;;3.67;;
55186;SDS011;55457;52.002;5.464;2023-07-02T02:54:39;9.73;;;4.32;;
55186;SDS011;55457;52.002;5.464;2023-07-02T02:57:04;13.13;;;4.35;;
55186;SDS011;55457;52.002;5.464;2023-07-02T02:59:30;11.30;;;4.05;;
55186;SDS011;55457;52.002;5.464;2023-07-02T03:01:55;9.68;;;3.50;;
55186;SDS011;55457;52.002;5.464;2023-07-02T03:04:21;8.93;;;3.80;;
55186;SDS011;55457;52.002;5.464;2023-07-02T03:06:49;7.28;;;3.80;;
55186;SDS011;55457;52.002;5.464;2023-07-02T03:09:14;15.18;;;4.25;;
55186;SDS011;55457;52.002;5.464;2023-07-02T03:11:40;7.85;;;4.03;;
55186;SDS011;55457;52.002;5.464;2023-07-02T03:14:05;9.63;;;3.83;;
55186;SDS011;55457;52.002;5.464;2023-07-02T03:16:30;15.02;;;4.05;;
55186;SDS011;55457;52.002;5.464;2023-07-02T03:18:56;8.07;;;4.57;;
55186;SDS011;55457;52.002;5.464;2023-07-02T03:21:21;8.00;;;4.30;;
55186;SDS011;55457;52.002;5.464;2023-07-02T03:23:46;9.18;;;3.72;;
55186;SDS011;55457;52.002;5.464;2023-07-02T03:26:12;8.68;;;4.38;;
55186;SDS011;55457;52.002;5.464;2023-07-02T03:28:38;7.95;;;4.22;;
55186;SDS011;55457;52.002;5.464;2023-07-02T03:31:04;9.52;;;4.15;;
55186;SDS011;55457;52.002;5.464;2023-07-02T03:33:29;7.97;;;3.65;;
55186;SDS011;55457;52.002;5.464;2023-07-02T03:35:54;6.68;;;3.63;;
55186;SDS011;55457;52.002;5.464;2023-07-02T03:38:20;8.20;;;3.83;;
55186;SDS011;55457;52.002;5.464;2023-07-02T03:40:45;8.00;;;3.97;;
55186;SDS011;55457;52.002;5.464;2023-07-02T03:43:10;11.25;;;3.80;;
55186;SDS011;55457;52.002;5.464;2023-07-02T03:45:36;7.18;;;3.90;;
55186;SDS011;55457;52.002;5.464;2023-07-02T03:48:01;11.55;;;4.57;;
55186;SDS011;55457;52.002;5.464;2023-07-02T03:50:26;7.22;;;3.60;;
55186;SDS011;55457;52.002;5.464;2023-07-02T03:52:52;7.15;;;4.07;;
55186;SDS011;55457;52.002;5.464;2023-07-02T03:55:19;9.75;;;5.10;;
55186;SDS011;55457;52.002;5.464;2023-07-02T03:57:44;11.05;;;3.95;;
55186;SDS011;55457;52.002;5.464;2023-07-02T04:00:10;8.50;;;3.80;;
55186;SDS011;55457;52.002;5.464;2023-07-02T04:02:36;7.72;;;3.90;;
55186;SDS011;55457;52.002;5.464;2023-07-02T04:05:01;8.82;;;4.38;;
55186;SDS011;55457;52.002;5.464;2023-07-02T04:07:27;9.23;;;4.15;;
55186;SDS011;55457;52.002;5.464;2023-07-02T04:09:53;10.32;;;4.57;;
55186;SDS011;55457;52.002;5.464;2023-07-02T04:12:18;7.13;;;4.20;;
55186;SDS011;55457;52.002;5.464;2023-07-02T04:14:44;9.82;;;4.15;;
55186;SDS011;55457;52.002;5.464;2023-07-02T04:17:09;10.93;;;5.05;;
55186;SDS011;55457;52.002;5.464;2023-07-02T04:19:34;12.43;;;5.00;;
55186;SDS011;55457;52.002;5.464;2023-07-02T04:22:00;8.88;;;3.63;;
55186;SDS011;55457;52.002;5.464;2023-07-02T04:24:25;9.70;;;4.32;;
55186;SDS011;55457;52.002;5.464;2023-07-02T04:26:51;10.88;;;5.07;;
55186;SDS011;55457;52.002;5.464;2023-07-02T04:29:18;10.27;;;4.53;;
55186;SDS011;55457;52.002;5.464;2023-07-02T04:31:43;8.63;;;4.45;;
55186;SDS011;55457;52.002;5.464;2023-07-02T04:34:08;12.65;;;4.50;;
55186;SDS011;55457;52.002;5.464;2023-07-02T04:36:34;9.27;;;4.45;;
55186;SDS011;55457;52.002;5.464;2023-07-02T04:38:59;9.48;;;4.50;;
55186;SDS011;55457;52.002;5.464;2023-07-02T04:41:25;10.43;;;3.90;;
55186;SDS011;55457;52.002;5.464;2023-07-02T04:43:51;9.32;;;4.40;;
55186;SDS011;55457;52.002;5.464;2023-07-02T04:46:16;9.18;;;4.28;;
55186;SDS011;55457;52.002;5.464;2023-07-02T04:48:43;11.07;;;4.55;;
55186;SDS011;55457;52.002;5.464;2023-07-02T04:51:08;8.70;;;4.15;;
55186;SDS011;55457;52.002;5.464;2023-07-02T04:53:33;7.82;;;4.88;;
55186;SDS011;55457;52.002;5.464;2023-07-02T04:55:59;12.45;;;5.22;;
55186;SDS011;55457;52.002;5.464;2023-07-02T04:58:24;9.18;;;5.07;;
55186;SDS011;55457;52.002;5.464;2023-07-02T05:00:50;9.45;;;4.50;;
55186;SDS011;55457;52.002;5.464;2023-07-02T05:03:15;11.77;;;4.93;;
55186;SDS011;55457;52.002;5.464;2023-07-02T05:05:40;6.80;;;4.28;;
55186;SDS011;55457;52.002;5.464;2023-07-02T05:08:06;9.90;;;4.43;;
55186;SDS011;55457;52.002;5.464;2023-07-02T05:10:31;8.57;;;4.35;;
55186;SDS011;55457;52.002;5.464;2023-07-02T05:12:57;8.68;;;4.13;;
55186;SDS011;55457;52.002;5.464;2023-07-02T05:15:23;9.55;;;4.57;;
55186;SDS011;55457;52.002;5.464;2023-07-02T05:17:49;15.88;;;5.35;;
55186;SDS011;55457;52.002;5.464;2023-07-02T05:20:14;9.63;;;4.57;;
55186;SDS011;55457;52.002;5.464;2023-07-02T05:22:40;12.07;;;4.63;;
55186;SDS011;55457;52.002;5.464;2023-07-02T05:25:05;9.90;;;4.50;;
55186;SDS011;55457;52.002;5.464;2023-07-02T05:27:31;10.63;;;4.80;;
55186;SDS011;55457;52.002;5.464;2023-07-02T05:29:56;8.65;;;4.85;;
55186;SDS011;55457;52.002;5.464;2023-07-02T05:32:22;14.05;;;6.95;;
55186;SDS011;55457;52.002;5.464;2023-07-02T05:34:47;13.32;;;5.05;;
55186;SDS011;55457;52.002;5.464;2023-07-02T05:37:13;10.98;;;5.72;;
55186;SDS011;55457;52.002;5.464;2023-07-02T05:39:38;16.15;;;5.88;;
55186;SDS011;55457;52.002;5.464;2023-07-02T05:42:04;14.88;;;5.70;;
55186;SDS011;55457;52.002;5.464;2023-07-02T05:44:29;12.10;;;5.03;;
55186;SDS011;55457;52.002;5.464;2023-07-02T05:46:54;12.48;;;5.25;;
55186;SDS011;55457;52.002;5.464;2023-07-02T05:49:20;13.68;;;5.32;;
55186;SDS011;55457;52.002;5.464;2023-07-02T05:51:45;11.45;;;5.22;;
55186;SDS011;55457;52.002;5.464;2023-07-02T05:54:10;9.90;;;5.38;;
55186;SDS011;55457;52.002;5.464;2023-07-02T05:56:36;12.60;;;4.95;;
55186;SDS011;55457;52.002;5.464;2023-07-02T05:59:01;15.90;;;4.50;;
55186;SDS011;55457;52.002;5.464;2023-07-02T06:01:26;10.75;;;5.40;;
55186;SDS011;55457;52.002;5.464;2023-07-02T06:03:52;14.07;;;5.25;;
55186;SDS011;55457;52.002;5.464;2023-07-02T06:06:17;14.88;;;5.38;;
55186;SDS011;55457;52.002;5.464;2023-07-02T06:08:43;13.93;;;6.28;;
55186;SDS011;55457;52.002;5.464;2023-07-02T06:11:09;12.63;;;5.28;;
55186;SDS011;55457;52.002;5.464;2023-07-02T06:13:35;12.13;;;5.05;;
55186;SDS011;55457;52.002;5.464;2023-07-02T06:16:00;11.90;;;5.88;;
55186;SDS011;55457;52.002;5.464;2023-07-02T06:18:26;11.45;;;4.88;;
55186;SDS011;55457;52.002;5.464;2023-07-02T06:20:51;10.68;;;4.80;;
55186;SDS011;55457;52.002;5.464;2023-07-02T06:23:17;14.25;;;5.45;;
55186;SDS011;55457;52.002;5.464;2023-07-02T06:25:42;16.80;;;5.40;;
55186;SDS011;55457;52.002;5.464;2023-07-02T06:28:07;18.38;;;5.35;;
55186;SDS011;55457;52.002;5.464;2023-07-02T06:30:34;17.65;;;6.28;;
55186;SDS011;55457;52.002;5.464;2023-07-02T06:32:59;14.05;;;5.22;;
55186;SDS011;55457;52.002;5.464;2023-07-02T06:35:25;11.32;;;4.65;;
55186;SDS011;55457;52.002;5.464;2023-07-02T06:37:50;15.90;;;5.85;;
55186;SDS011;55457;52.002;5.464;2023-07-02T06:40:15;21.10;;;4.88;;
55186;SDS011;55457;52.002;5.464;2023-07-02T06:42:41;17.05;;;5.80;;
55186;SDS011;55457;52.002;5.464;2023-07-02T06:45:06;14.75;;;5.28;;
55186;SDS011;55457;52.002;5.464;2023-07-02T06:47:32;14.25;;;5.25;;
55186;SDS011;55457;52.002;5.464;2023-07-02T06:49:58;10.35;;;4.43;;
55186;SDS011;55457;52.002;5.464;2023-07-02T06:52:24;12.30;;;5.47;;
55186;SDS011;55457;52.002;5.464;2023-07-02T06:54:49;15.32;;;5.95;;
55186;SDS011;55457;52.002;5.464;2023-07-02T06:57:15;17.02;;;5.50;;
55186;SDS011;55457;52.002;5.464;2023-07-02T06:59:40;13.52;;;4.70;;
55186;SDS011;55457;52.002;5.464;2023-07-02T07:02:06;19.80;;;5.80;;
55186;SDS011;55457;52.002;5.464;2023-07-02T07:04:31;13.63;;;4.57;;
55186;SDS011;55457;52.002;5.464;2023-07-02T07:06:57;14.55;;;5.25;;
55186;SDS011;55457;52.002;5.464;2023-07-02T07:09:22;20.35;;;5.45;;
55186;SDS011;55457;52.002;5.464;2023-07-02T07:11:47;16.15;;;5.22;;
55186;SDS011;55457;52.002;5.464;2023-07-02T07:14:13;17.38;;;5.97;;
55186;SDS011;55457;52.002;5.464;2023-07-02T07:16:39;15.35;;;4.97;;
55186;SDS011;55457;52.002;5.464;2023-07-02T07:19:04;14.32;;;5.03;;
55186;SDS011;55457;52.002;5.464;2023-07-02T07:21:30;15.27;;;5.30;;
55186;SDS011;55457;52.002;5.464;2023-07-02T07:23:56;14.77;;;5.32;;
55186;SDS011;55457;52.002;5.464;2023-07-02T07:26:21;16.77;;;5.55;;
55186;SDS011;55457;52.002;5.464;2023-07-02T07:28:47;16.52;;;5.82;;
55186;SDS011;55457;52.002;5.464;2023-07-02T07:31:12;14.27;;;5.55;;
55186;SDS011;55457;52.002;5.464;2023-07-02T07:33:37;23.00;;;6.43;;
55186;SDS011;55457;52.002;5.464;2023-07-02T07:36:03;21.95;;;5.97;;
55186;SDS011;55457;52.002;5.464;2023-07-02T07:38:29;20.92;;;5.03;;
55186;SDS011;55457;52.002;5.464;2023-07-02T07:40:54;19.55;;;6.00;;
55186;SDS011;55457;52.002;5.464;2023-07-02T07:43:19;15.13;;;5.22;;
55186;SDS011;55457;52.002;5.464;2023-07-02T07:45:45;12.15;;;6.18;;
55186;SDS011;55457;52.002;5.464;2023-07-02T07:48:10;16.08;;;5.03;;
55186;SDS011;55457;52.002;5.464;2023-07-02T07:50:36;16.17;;;4.63;;
55186;SDS011;55457;52.002;5.464;2023-07-02T07:53:01;15.18;;;5.05;;
55186;SDS011;55457;52.002;5.464;2023-07-02T07:55:27;10.73;;;4.55;;
55186;SDS011;55457;52.002;5.464;2023-07-02T07:57:52;9.45;;;3.88;;
55186;SDS011;55457;52.002;5.464;2023-07-02T08:00:17;11.18;;;4.10;;
55186;SDS011;55457;52.002;5.464;2023-07-02T08:02:44;17.17;;;4.70;;
55186;SDS011;55457;52.002;5.464;2023-07-02T08:05:12;9.43;;;3.80;;
55186;SDS011;55457;52.002;5.464;2023-07-02T08:07:38;9.25;;;3.70;;
55186;SDS011;55457;52.002;5.464;2023-07-02T08:10:05;13.95;;;5.07;;
55186;SDS011;55457;52.002;5.464;2023-07-02T08:12:31;12.35;;;4.13;;
55186;SDS011;55457;52.002;5.464;2023-07-02T08:14:56;9.90;;;4.43;;
55186;SDS011;55457;52.002;5.464;2023-07-02T08:17:22;9.10;;;4.88;;
55186;SDS011;55457;52.002;5.464;2023-07-02T08:19:47;13.63;;;5.10;;
55186;SDS011;55457;52.002;5.464;2023-07-02T08:22:13;11.98;;;4.85;;
55186;SDS011;55457;52.002;5.464;2023-07-02T08:24:38;9.20;;;3.97;;
55186;SDS011;55457;52.002;5.464;2023-07-02T08:27:04;11.90;;;4.50;;
55186;SDS011;55457;52.002;5.464;2023-07-02T08:29:30;11.70;;;4.32;;
55186;SDS011;55457;52.002;5.464;2023-07-02T08:31:56;11.32;;;4.10;;
55186;SDS011;55457;52.002;5.464;2023-07-02T08:34:21;11.65;;;4.00;;
55186;SDS011;55457;52.002;5.464;2023-07-02T08:36:47;11.15;;;4.18;;
55186;SDS011;55457;52.002;5.464;2023-07-02T08:39:12;10.48;;;4.20;;
55186;SDS011;55457;52.002;5.464;2023-07-02T08:41:44;13.02;;;4.50;;
55186;SDS011;55457;52.002;5.464;2023-07-02T08:44:11;8.73;;;4.07;;
55186;SDS011;55457;52.002;5.464;2023-07-02T08:46:38;7.55;;;3.42;;
55186;SDS011;55457;52.002;5.464;2023-07-02T08:49:04;15.40;;;4.07;;
55186;SDS011;55457;52.002;5.464;2023-07-02T08:51:30;9.88;;;3.58;;
55186;SDS011;55457;52.002;5.464;2023-07-02T08:53:55;7.60;;;3.05;;
55186;SDS011;55457;52.002;5.464;2023-07-02T08:56:20;8.60;;;3.60;;
55186;SDS011;55457;52.002;5.464;2023-07-02T08:58:46;9.60;;;3.55;;
55186;SDS011;55457;52.002;5.464;2023-07-02T09:01:12;12.27;;;3.80;;
55186;SDS011;55457;52.002;5.464;2023-07-02T09:03:38;7.70;;;3.75;;
55186;SDS011;55457;52.002;5.464;2023-07-02T09:06:05;9.43;;;4.47;;
55186;SDS011;55457;52.002;5.464;2023-07-02T09:08:32;7.65;;;3.85;;
55186;SDS011;55457;52.002;5.464;2023-07-02T09:16:24;7.97;;;3.92;;
55186;SDS011;55457;52.002;5.464;2023-07-02T09:19:05;8.45;;;2.92;;
55186;SDS011;55457;52.002;5.464;2023-07-02T09:24:20;8.45;;;4.15;;
55186;SDS011;55457;52.002;5.464;2023-07-02T09:26:50;7.90;;;3.20;;
55186;SDS011;55457;52.002;5.464;2023-07-02T09:29:25;8.70;;;3.88;;
55186;SDS011;55457;52.002;5.464;2023-07-02T09:31:53;6.30;;;3.15;;
55186;SDS011;55457;52.002;5.464;2023-07-02T09:34:25;10.40;;;3.72;;
55186;SDS011;55457;52.002;5.464;2023-07-02T09:37:01;6.28;;;3.30;;
55186;SDS011;55457;52.002;5.464;2023-07-02T09:39:30;8.15;;;3.10;;
55186;SDS011;55457;52.002;5.464;2023-07-02T09:41:58;9.05;;;3.58;;
55186;SDS011;55457;52.002;5.464;2023-07-02T09:44:28;5.88;;;3.10;;
55186;SDS011;55457;52.002;5.464;2023-07-02T09:47:01;6.90;;;3.15;;
55186;SDS011;55457;52.002;5.464;2023-07-02T09:49:37;5.30;;;3.00;;
55186;SDS011;55457;52.002;5.464;2023-07-02T09:52:07;7.50;;;3.17;;
55186;SDS011;55457;52.002;5.464;2023-07-02T09:54:34;7.40;;;3.13;;
55186;SDS011;55457;52.002;5.464;2023-07-02T09:57:00;6.35;;;2.85;;
55186;SDS011;55457;52.002;5.464;2023-07-02T09:59:26;6.38;;;2.70;;
55186;SDS011;55457;52.002;5.464;2023-07-02T10:01:52;8.77;;;3.30;;
55186;SDS011;55457;52.002;5.464;2023-07-02T10:04:18;5.28;;;2.85;;
55186;SDS011;55457;52.002;5.464;2023-07-02T10:09:11;6.97;;;4.55;;
55186;SDS011;55457;52.002;5.464;2023-07-02T10:11:36;7.70;;;2.90;;
55186;SDS011;55457;52.002;5.464;2023-07-02T10:14:02;6.85;;;3.22;;
55186;SDS011;55457;52.002;5.464;2023-07-02T10:16:27;4.82;;;2.42;;
55186;SDS011;55457;52.002;5.464;2023-07-02T10:18:56;8.43;;;3.83;;
55186;SDS011;55457;52.002;5.464;2023-07-02T10:21:33;6.22;;;2.72;;
55186;SDS011;55457;52.002;5.464;2023-07-02T10:24:08;8.95;;;2.67;;
55186;SDS011;55457;52.002;5.464;2023-07-02T10:26:35;5.75;;;3.20;;
55186;SDS011;55457;52.002;5.464;2023-07-02T10:29:00;5.85;;;2.70;;
55186;SDS011;55457;52.002;5.464;2023-07-02T10:31:26;5.57;;;2.75;;
55186;SDS011;55457;52.002;5.464;2023-07-02T10:33:51;7.72;;;3.30;;
55186;SDS011;55457;52.002;5.464;2023-07-02T10:36:23;3.92;;;2.63;;
55186;SDS011;55457;52.002;5.464;2023-07-02T10:38:50;8.95;;;2.83;;
55186;SDS011;55457;52.002;5.464;2023-07-02T10:41:28;5.78;;;2.40;;
55186;SDS011;55457;52.002;5.464;2023-07-02T10:44:04;6.43;;;2.80;;
55186;SDS011;55457;52.002;5.464;2023-07-02T10:46:34;5.03;;;2.38;;
55186;SDS011;55457;52.002;5.464;2023-07-02T10:48:59;5.10;;;2.58;;
55186;SDS011;55457;52.002;5.464;2023-07-02T10:51:25;7.53;;;2.80;;
55186;SDS011;55457;52.002;5.464;2023-07-02T10:54:00;5.25;;;2.58;;
55186;SDS011;55457;52.002;5.464;2023-07-02T10:56:30;5.10;;;2.83;;
55186;SDS011;55457;52.002;5.464;2023-07-02T10:58:55;8.73;;;3.10;;
55186;SDS011;55457;52.002;5.464;2023-07-02T11:04:02;8.02;;;2.53;;
55186;SDS011;55457;52.002;5.464;2023-07-02T11:06:30;4.22;;;2.58;;
55186;SDS011;55457;52.002;5.464;2023-07-02T11:08:59;6.43;;;3.20;;
55186;SDS011;55457;52.002;5.464;2023-07-02T11:11:25;10.48;;;3.17;;
55186;SDS011;55457;52.002;5.464;2023-07-02T11:13:51;5.75;;;2.83;;
55186;SDS011;55457;52.002;5.464;2023-07-02T11:16:27;7.72;;;2.83;;
55186;SDS011;55457;52.002;5.464;2023-07-02T11:19:06;5.18;;;2.85;;
55186;SDS011;55457;52.002;5.464;2023-07-02T11:21:33;8.45;;;2.22;;
55186;SDS011;55457;52.002;5.464;2023-07-02T11:24:06;5.55;;;2.67;;
55186;SDS011;55457;52.002;5.464;2023-07-02T11:26:39;5.32;;;2.60;;
55186;SDS011;55457;52.002;5.464;2023-07-02T11:29:11;5.10;;;2.58;;
55186;SDS011;55457;52.002;5.464;2023-07-02T11:31:42;6.45;;;2.67;;
55186;SDS011;55457;52.002;5.464;2023-07-02T11:34:21;6.50;;;2.30;;
55186;SDS011;55457;52.002;5.464;2023-07-02T11:36:47;6.15;;;2.65;;
55186;SDS011;55457;52.002;5.464;2023-07-02T11:39:13;5.30;;;2.40;;
55186;SDS011;55457;52.002;5.464;2023-07-02T11:41:41;3.70;;;2.35;;
55186;SDS011;55457;52.002;5.464;2023-07-02T11:44:07;5.45;;;2.38;;
55186;SDS011;55457;52.002;5.464;2023-07-02T11:46:33;8.70;;;2.85;;
55186;SDS011;55457;52.002;5.464;2023-07-02T11:49:02;7.28;;;3.00;;
55186;SDS011;55457;52.002;5.464;2023-07-02T11:51:38;5.55;;;2.63;;
55186;SDS011;55457;52.002;5.464;2023-07-02T11:54:04;5.80;;;2.83;;
55186;SDS011;55457;52.002;5.464;2023-07-02T11:56:30;8.13;;;2.10;;
55186;SDS011;55457;52.002;5.464;2023-07-02T11:58:55;7.95;;;3.50;;
55186;SDS011;55457;52.002;5.464;2023-07-02T12:01:21;7.28;;;2.88;;
55186;SDS011;55457;52.002;5.464;2023-07-02T12:03:46;6.43;;;2.60;;
55186;SDS011;55457;52.002;5.464;2023-07-02T12:06:12;4.43;;;2.75;;
55186;SDS011;55457;52.002;5.464;2023-07-02T12:08:37;8.80;;;2.95;;
55186;SDS011;55457;52.002;5.464;2023-07-02T12:11:03;5.28;;;3.15;;
55186;SDS011;55457;52.002;5.464;2023-07-02T12:13:28;5.78;;;3.05;;
55186;SDS011;55457;52.002;5.464;2023-07-02T12:15:53;4.38;;;2.35;;
55186;SDS011;55457;52.002;5.464;2023-07-02T12:18:19;5.28;;;2.67;;
55186;SDS011;55457;52.002;5.464;2023-07-02T12:20:44;5.93;;;3.10;;
55186;SDS011;55457;52.002;5.464;2023-07-02T12:23:10;6.18;;;3.13;;
55186;SDS011;55457;52.002;5.464;2023-07-02T12:25:36;7.50;;;2.60;;
55186;SDS011;55457;52.002;5.464;2023-07-02T12:28:02;4.13;;;2.50;;
55186;SDS011;55457;52.002;5.464;2023-07-02T12:30:28;4.13;;;2.42;;
55186;SDS011;55457;52.002;5.464;2023-07-02T12:32:54;6.30;;;3.20;;
55186;SDS011;55457;52.002;5.464;2023-07-02T12:35:19;6.10;;;3.15;;
55186;SDS011;55457;52.002;5.464;2023-07-02T12:37:49;6.15;;;2.80;;
55186;SDS011;55457;52.002;5.464;2023-07-02T12:40:15;5.43;;;2.78;;
55186;SDS011;55457;52.002;5.464;2023-07-02T12:42:42;6.65;;;2.42;;
55186;SDS011;55457;52.002;5.464;2023-07-02T12:45:08;5.10;;;3.03;;
55186;SDS011;55457;52.002;5.464;2023-07-02T12:47:34;7.35;;;2.97;;
55186;SDS011;55457;52.002;5.464;2023-07-02T12:50:00;4.43;;;3.15;;
55186;SDS011;55457;52.002;5.464;2023-07-02T12:52:25;6.57;;;3.15;;
55186;SDS011;55457;52.002;5.464;2023-07-02T12:54:51;5.60;;;2.78;;
55186;SDS011;55457;52.002;5.464;2023-07-02T12:57:17;6.25;;;2.83;;
55186;SDS011;55457;52.002;5.464;2023-07-02T12:59:42;5.88;;;2.95;;
55186;SDS011;55457;52.002;5.464;2023-07-02T13:02:09;8.40;;;3.00;;
55186;SDS011;55457;52.002;5.464;2023-07-02T13:04:35;6.88;;;3.03;;
55186;SDS011;55457;52.002;5.464;2023-07-02T13:07:00;8.30;;;2.97;;
55186;SDS011;55457;52.002;5.464;2023-07-02T13:09:26;4.82;;;3.05;;
55186;SDS011;55457;52.002;5.464;2023-07-02T13:11:51;8.57;;;3.33;;
55186;SDS011;55457;52.002;5.464;2023-07-02T13:14:16;6.70;;;2.88;;
55186;SDS011;55457;52.002;5.464;2023-07-02T13:16:42;7.50;;;3.30;;
55186;SDS011;55457;52.002;5.464;2023-07-02T13:19:07;8.98;;;3.33;;
55186;SDS011;55457;52.002;5.464;2023-07-02T13:21:33;7.40;;;3.15;;
55186;SDS011;55457;52.002;5.464;2023-07-02T13:23:58;5.90;;;3.17;;
55186;SDS011;55457;52.002;5.464;2023-07-02T13:26:23;7.65;;;2.80;;
55186;SDS011;55457;52.002;5.464;2023-07-02T13:28:49;8.07;;;3.42;;
55186;SDS011;55457;52.002;5.464;2023-07-02T13:31:14;5.82;;;3.00;;
55186;SDS011;55457;52.002;5.464;2023-07-02T13:33:40;7.03;;;3.20;;
55186;SDS011;55457;52.002;5.464;2023-07-02T13:36:07;6.82;;;2.92;;
55186;SDS011;55457;52.002;5.464;2023-07-02T13:38:32;6.50;;;3.50;;
55186;SDS011;55457;52.002;5.464;2023-07-02T13:40:58;7.90;;;3.30;;
55186;SDS011;55457;52.002;5.464;2023-07-02T13:43:23;6.70;;;3.22;;
55186;SDS011;55457;52.002;5.464;2023-07-02T13:45:49;10.43;;;4.38;;
55186;SDS011;55457;52.002;5.464;2023-07-02T13:48:14;5.97;;;2.90;;
55186;SDS011;55457;52.002;5.464;2023-07-02T13:50:40;4.38;;;2.60;;
55186;SDS011;55457;52.002;5.464;2023-07-02T13:53:05;6.43;;;3.30;;
55186;SDS011;55457;52.002;5.464;2023-07-02T13:55:30;9.45;;;3.38;;
55186;SDS011;55457;52.002;5.464;2023-07-02T13:57:56;5.45;;;2.85;;
55186;SDS011;55457;52.002;5.464;2023-07-02T14:00:22;6.65;;;3.25;;
55186;SDS011;55457;52.002;5.464;2023-07-02T14:02:48;7.82;;;3.63;;
55186;SDS011;55457;52.002;5.464;2023-07-02T14:05:14;6.55;;;3.28;;
55186;SDS011;55457;52.002;5.464;2023-07-02T14:07:40;7.88;;;3.22;;
55186;SDS011;55457;52.002;5.464;2023-07-02T14:10:05;7.05;;;3.47;;
55186;SDS011;55457;52.002;5.464;2023-07-02T14:12:31;6.45;;;3.40;;
55186;SDS011;55457;52.002;5.464;2023-07-02T14:14:57;5.88;;;3.47;;
55186;SDS011;55457;52.002;5.464;2023-07-02T14:17:22;7.47;;;3.35;;
55186;SDS011;55457;52.002;5.464;2023-07-02T14:19:47;5.43;;;2.85;;
55186;SDS011;55457;52.002;5.464;2023-07-02T14:22:13;8.02;;;3.25;;
55186;SDS011;55457;52.002;5.464;2023-07-02T14:24:38;8.38;;;3.75;;
55186;SDS011;55457;52.002;5.464;2023-07-02T14:27:04;5.85;;;3.40;;
55186;SDS011;55457;52.002;5.464;2023-07-02T14:29:29;6.07;;;3.22;;
55186;SDS011;55457;52.002;5.464;2023-07-02T14:31:55;8.27;;;3.30;;
55186;SDS011;55457;52.002;5.464;2023-07-02T14:34:20;6.90;;;3.60;;
55186;SDS011;55457;52.002;5.464;2023-07-02T14:36:46;6.03;;;3.05;;
55186;SDS011;55457;52.002;5.464;2023-07-02T14:39:11;5.10;;;3.10;;
55186;SDS011;55457;52.002;5.464;2023-07-02T14:41:37;5.82;;;3.28;;
55186;SDS011;55457;52.002;5.464;2023-07-02T14:44:03;6.65;;;3.05;;
55186;SDS011;55457;52.002;5.464;2023-07-02T14:46:29;7.30;;;3.22;;
55186;SDS011;55457;52.002;5.464;2023-07-02T14:48:55;6.70;;;3.00;;
55186;SDS011;55457;52.002;5.464;2023-07-02T14:51:21;6.03;;;3.28;;
55186;SDS011;55457;52.002;5.464;2023-07-02T14:53:46;6.75;;;3.60;;
55186;SDS011;55457;52.002;5.464;2023-07-02T14:56:12;7.13;;;3.33;;